sensor_id;sensor_type;location;lat;lon;timestamp;P1;durP1;ratioP1;P2;durP2;ratioP2
71610;SDS011;59459;51.172;6.682;2023-07-20T00:01:59;5.93;;;2.17;;
71610;SDS011;59459;51.172;6.682;2023-07-20T00:04:24;6.70;;;2.03;;
71610;SDS011;59459;51.172;6.682;2023-07-20T00:06:50;8.67;;;2.27;;
71610;SDS011;59459;51.172;6.682;2023-07-20T00:09:15;6.20;;;1.97;;
71610;SDS011;59459;51.172;6.682;2023-07-20T00:11:47;5.10;;;1.97;;
71610;SDS011;59459;51.172;6.682;2023-07-20T00:14:12;5.95;;;2.13;;
71610;SDS011;59459;51.172;6.682;2023-07-20T00:16:38;5.17;;;2.07;;
71610;SDS011;59459;51.172;6.682;2023-07-20T00:19:03;5.23;;;1.97;;
71610;SDS011;59459;51.172;6.682;2023-07-20T00:21:29;4.63;;;2.20;;
71610;SDS011;59459;51.172;6.682;2023-07-20T00:23:55;6.03;;;2.07;;
71610;SDS011;59459;51.172;6.682;2023-07-20T00:26:20;6.13;;;2.27;;
71610;SDS011;59459;51.172;6.682;2023-07-20T00:28:45;6.57;;;2.57;;
71610;SDS011;59459;51.172;6.682;2023-07-20T00:31:10;4.77;;;1.93;;
71610;SDS011;59459;51.172;6.682;2023-07-20T00:33:35;4.87;;;2.33;;
71610;SDS011;59459;51.172;6.682;2023-07-20T00:36:01;6.97;;;2.40;;
71610;SDS011;59459;51.172;6.682;2023-07-20T00:38:26;6.90;;;2.27;;
71610;SDS011;59459;51.172;6.682;2023-07-20T00:40:51;7.43;;;2.50;;
71610;SDS011;59459;51.172;6.682;2023-07-20T00:43:16;6.13;;;2.20;;
71610;SDS011;59459;51.172;6.682;2023-07-20T00:45:42;5.13;;;2.57;;
71610;SDS011;59459;51.172;6.682;2023-07-20T00:48:08;4.70;;;2.28;;
71610;SDS011;59459;51.172;6.682;2023-07-20T00:50:33;6.77;;;2.70;;
71610;SDS011;59459;51.172;6.682;2023-07-20T00:52:59;5.93;;;2.10;;
71610;SDS011;59459;51.172;6.682;2023-07-20T00:55:24;6.93;;;2.10;;
71610;SDS011;59459;51.172;6.682;2023-07-20T00:57:50;7.80;;;2.43;;
71610;SDS011;59459;51.172;6.682;2023-07-20T01:00:16;6.63;;;2.10;;
71610;SDS011;59459;51.172;6.682;2023-07-20T01:02:41;4.97;;;2.47;;
71610;SDS011;59459;51.172;6.682;2023-07-20T01:05:06;5.47;;;2.10;;
71610;SDS011;59459;51.172;6.682;2023-07-20T01:07:34;4.82;;;1.85;;
71610;SDS011;59459;51.172;6.682;2023-07-20T01:10:01;7.93;;;2.47;;
71610;SDS011;59459;51.172;6.682;2023-07-20T01:12:30;7.70;;;2.55;;
71610;SDS011;59459;51.172;6.682;2023-07-20T01:14:57;7.47;;;2.17;;
71610;SDS011;59459;51.172;6.682;2023-07-20T01:17:23;4.87;;;1.97;;
71610;SDS011;59459;51.172;6.682;2023-07-20T01:19:49;4.80;;;2.08;;
71610;SDS011;59459;51.172;6.682;2023-07-20T01:25:03;4.60;;;2.05;;
71610;SDS011;59459;51.172;6.682;2023-07-20T01:30:08;6.70;;;2.50;;
71610;SDS011;59459;51.172;6.682;2023-07-20T01:32:39;7.00;;;2.40;;
71610;SDS011;59459;51.172;6.682;2023-07-20T01:35:05;5.28;;;2.15;;
71610;SDS011;59459;51.172;6.682;2023-07-20T01:37:31;7.75;;;2.42;;
71610;SDS011;59459;51.172;6.682;2023-07-20T01:39:58;8.25;;;2.90;;
71610;SDS011;59459;51.172;6.682;2023-07-20T01:42:24;5.47;;;2.00;;
71610;SDS011;59459;51.172;6.682;2023-07-20T01:44:51;8.03;;;2.27;;
71610;SDS011;59459;51.172;6.682;2023-07-20T01:47:17;5.45;;;2.28;;
71610;SDS011;59459;51.172;6.682;2023-07-20T01:49:43;8.53;;;2.73;;
71610;SDS011;59459;51.172;6.682;2023-07-20T01:52:08;5.97;;;2.13;;
71610;SDS011;59459;51.172;6.682;2023-07-20T01:54:33;4.95;;;2.20;;
71610;SDS011;59459;51.172;6.682;2023-07-20T01:56:58;4.67;;;2.20;;
71610;SDS011;59459;51.172;6.682;2023-07-20T01:59:24;7.23;;;2.77;;
71610;SDS011;59459;51.172;6.682;2023-07-20T02:01:49;4.33;;;2.20;;
71610;SDS011;59459;51.172;6.682;2023-07-20T02:04:14;6.17;;;2.10;;
71610;SDS011;59459;51.172;6.682;2023-07-20T02:06:39;6.13;;;2.10;;
71610;SDS011;59459;51.172;6.682;2023-07-20T02:09:04;4.73;;;2.03;;
71610;SDS011;59459;51.172;6.682;2023-07-20T02:11:30;7.97;;;2.40;;
71610;SDS011;59459;51.172;6.682;2023-07-20T02:13:55;4.80;;;1.93;;
71610;SDS011;59459;51.172;6.682;2023-07-20T02:16:20;5.50;;;2.07;;
71610;SDS011;59459;51.172;6.682;2023-07-20T02:18:45;5.77;;;2.30;;
71610;SDS011;59459;51.172;6.682;2023-07-20T02:21:11;4.60;;;2.30;;
71610;SDS011;59459;51.172;6.682;2023-07-20T02:23:36;7.80;;;2.33;;
71610;SDS011;59459;51.172;6.682;2023-07-20T02:26:01;7.93;;;2.43;;
71610;SDS011;59459;51.172;6.682;2023-07-20T02:28:26;7.53;;;2.60;;
71610;SDS011;59459;51.172;6.682;2023-07-20T02:30:52;6.87;;;3.30;;
71610;SDS011;59459;51.172;6.682;2023-07-20T02:33:17;7.97;;;2.40;;
71610;SDS011;59459;51.172;6.682;2023-07-20T02:35:42;5.80;;;2.27;;
71610;SDS011;59459;51.172;6.682;2023-07-20T02:38:07;9.83;;;2.77;;
71610;SDS011;59459;51.172;6.682;2023-07-20T02:40:33;8.80;;;2.58;;
71610;SDS011;59459;51.172;6.682;2023-07-20T02:42:58;8.60;;;2.90;;
71610;SDS011;59459;51.172;6.682;2023-07-20T02:45:23;5.60;;;2.10;;
71610;SDS011;59459;51.172;6.682;2023-07-20T02:47:48;6.00;;;2.47;;
71610;SDS011;59459;51.172;6.682;2023-07-20T02:50:14;5.53;;;2.80;;
71610;SDS011;59459;51.172;6.682;2023-07-20T02:52:39;6.87;;;2.77;;
71610;SDS011;59459;51.172;6.682;2023-07-20T02:55:04;7.53;;;2.57;;
71610;SDS011;59459;51.172;6.682;2023-07-20T02:57:29;6.20;;;2.10;;
71610;SDS011;59459;51.172;6.682;2023-07-20T02:59:55;5.60;;;2.10;;
71610;SDS011;59459;51.172;6.682;2023-07-20T03:02:20;6.40;;;2.73;;
71610;SDS011;59459;51.172;6.682;2023-07-20T03:04:45;6.70;;;2.87;;
71610;SDS011;59459;51.172;6.682;2023-07-20T03:07:10;7.07;;;2.90;;
71610;SDS011;59459;51.172;6.682;2023-07-20T03:09:35;6.67;;;2.47;;
71610;SDS011;59459;51.172;6.682;2023-07-20T03:12:01;9.83;;;3.23;;
71610;SDS011;59459;51.172;6.682;2023-07-20T03:14:26;6.83;;;2.87;;
71610;SDS011;59459;51.172;6.682;2023-07-20T03:16:51;7.20;;;3.10;;
71610;SDS011;59459;51.172;6.682;2023-07-20T03:19:16;6.73;;;2.30;;
71610;SDS011;59459;51.172;6.682;2023-07-20T03:21:42;8.90;;;2.58;;
71610;SDS011;59459;51.172;6.682;2023-07-20T03:24:08;7.90;;;2.90;;
71610;SDS011;59459;51.172;6.682;2023-07-20T03:26:34;7.57;;;2.40;;
71610;SDS011;59459;51.172;6.682;2023-07-20T03:28:59;7.47;;;2.60;;
71610;SDS011;59459;51.172;6.682;2023-07-20T03:31:24;9.23;;;3.13;;
71610;SDS011;59459;51.172;6.682;2023-07-20T03:33:50;6.10;;;2.30;;
71610;SDS011;59459;51.172;6.682;2023-07-20T03:36:15;7.67;;;2.90;;
71610;SDS011;59459;51.172;6.682;2023-07-20T03:38:40;6.73;;;2.30;;
71610;SDS011;59459;51.172;6.682;2023-07-20T03:41:05;8.57;;;2.97;;
71610;SDS011;59459;51.172;6.682;2023-07-20T03:43:31;6.97;;;2.97;;
71610;SDS011;59459;51.172;6.682;2023-07-20T03:45:56;7.97;;;2.63;;
71610;SDS011;59459;51.172;6.682;2023-07-20T03:48:24;9.00;;;2.58;;
71610;SDS011;59459;51.172;6.682;2023-07-20T03:50:51;7.35;;;3.08;;
71610;SDS011;59459;51.172;6.682;2023-07-20T03:53:16;6.80;;;2.60;;
71610;SDS011;59459;51.172;6.682;2023-07-20T03:55:44;9.25;;;2.85;;
71610;SDS011;59459;51.172;6.682;2023-07-20T03:58:10;8.73;;;3.20;;
71610;SDS011;59459;51.172;6.682;2023-07-20T04:00:36;7.37;;;2.50;;
71610;SDS011;59459;51.172;6.682;2023-07-20T04:03:01;7.63;;;2.60;;
71610;SDS011;59459;51.172;6.682;2023-07-20T04:05:26;9.37;;;3.07;;
71610;SDS011;59459;51.172;6.682;2023-07-20T04:07:51;8.70;;;3.00;;
71610;SDS011;59459;51.172;6.682;2023-07-20T04:10:17;7.13;;;2.97;;
71610;SDS011;59459;51.172;6.682;2023-07-20T04:12:43;7.63;;;2.90;;
71610;SDS011;59459;51.172;6.682;2023-07-20T04:15:08;7.68;;;2.80;;
71610;SDS011;59459;51.172;6.682;2023-07-20T04:17:34;7.97;;;2.57;;
71610;SDS011;59459;51.172;6.682;2023-07-20T04:19:59;11.10;;;3.20;;
71610;SDS011;59459;51.172;6.682;2023-07-20T04:22:24;7.20;;;2.63;;
71610;SDS011;59459;51.172;6.682;2023-07-20T04:24:49;9.07;;;3.10;;
71610;SDS011;59459;51.172;6.682;2023-07-20T04:27:15;7.70;;;2.97;;
71610;SDS011;59459;51.172;6.682;2023-07-20T04:29:40;8.63;;;2.73;;
71610;SDS011;59459;51.172;6.682;2023-07-20T04:32:05;7.57;;;2.67;;
71610;SDS011;59459;51.172;6.682;2023-07-20T04:34:31;7.13;;;2.23;;
71610;SDS011;59459;51.172;6.682;2023-07-20T04:36:56;9.20;;;2.97;;
71610;SDS011;59459;51.172;6.682;2023-07-20T04:39:21;10.30;;;3.47;;
71610;SDS011;59459;51.172;6.682;2023-07-20T04:41:46;7.57;;;3.20;;
71610;SDS011;59459;51.172;6.682;2023-07-20T04:44:12;8.53;;;3.07;;
71610;SDS011;59459;51.172;6.682;2023-07-20T04:46:38;8.43;;;2.80;;
71610;SDS011;59459;51.172;6.682;2023-07-20T04:49:05;10.40;;;2.38;;
71610;SDS011;59459;51.172;6.682;2023-07-20T04:51:30;9.63;;;2.97;;
71610;SDS011;59459;51.172;6.682;2023-07-20T04:53:55;8.50;;;2.73;;
71610;SDS011;59459;51.172;6.682;2023-07-20T04:56:21;9.17;;;3.13;;
71610;SDS011;59459;51.172;6.682;2023-07-20T04:58:48;9.02;;;3.13;;
71610;SDS011;59459;51.172;6.682;2023-07-20T05:01:13;7.87;;;3.37;;
71610;SDS011;59459;51.172;6.682;2023-07-20T05:03:38;7.33;;;3.00;;
71610;SDS011;59459;51.172;6.682;2023-07-20T05:06:03;7.50;;;2.73;;
71610;SDS011;59459;51.172;6.682;2023-07-20T05:08:29;7.50;;;2.97;;
71610;SDS011;59459;51.172;6.682;2023-07-20T05:10:54;8.33;;;3.10;;
71610;SDS011;59459;51.172;6.682;2023-07-20T05:13:19;8.53;;;2.80;;
71610;SDS011;59459;51.172;6.682;2023-07-20T05:15:44;7.30;;;2.47;;
71610;SDS011;59459;51.172;6.682;2023-07-20T05:18:09;8.17;;;3.13;;
71610;SDS011;59459;51.172;6.682;2023-07-20T05:20:35;8.93;;;3.37;;
71610;SDS011;59459;51.172;6.682;2023-07-20T05:23:00;7.40;;;3.30;;
71610;SDS011;59459;51.172;6.682;2023-07-20T05:25:26;7.75;;;2.95;;
71610;SDS011;59459;51.172;6.682;2023-07-20T05:27:51;11.40;;;3.53;;
71610;SDS011;59459;51.172;6.682;2023-07-20T05:30:17;9.13;;;3.70;;
71610;SDS011;59459;51.172;6.682;2023-07-20T05:32:42;12.70;;;3.87;;
71610;SDS011;59459;51.172;6.682;2023-07-20T05:35:07;12.03;;;3.33;;
71610;SDS011;59459;51.172;6.682;2023-07-20T05:37:33;12.50;;;4.03;;
71610;SDS011;59459;51.172;6.682;2023-07-20T05:39:59;9.33;;;3.93;;
71610;SDS011;59459;51.172;6.682;2023-07-20T05:42:24;10.57;;;4.20;;
71610;SDS011;59459;51.172;6.682;2023-07-20T05:44:49;11.97;;;5.23;;
71610;SDS011;59459;51.172;6.682;2023-07-20T05:47:17;11.68;;;5.05;;
71610;SDS011;59459;51.172;6.682;2023-07-20T05:49:42;11.57;;;5.00;;
71610;SDS011;59459;51.172;6.682;2023-07-20T05:52:08;10.77;;;5.27;;
71610;SDS011;59459;51.172;6.682;2023-07-20T05:54:33;13.13;;;5.87;;
71610;SDS011;59459;51.172;6.682;2023-07-20T05:56:58;13.37;;;5.77;;
71610;SDS011;59459;51.172;6.682;2023-07-20T05:59:24;13.97;;;6.53;;
71610;SDS011;59459;51.172;6.682;2023-07-20T06:01:49;15.30;;;7.10;;
71610;SDS011;59459;51.172;6.682;2023-07-20T06:04:14;11.77;;;5.57;;
71610;SDS011;59459;51.172;6.682;2023-07-20T06:06:40;15.02;;;7.35;;
71610;SDS011;59459;51.172;6.682;2023-07-20T06:09:05;14.30;;;6.17;;
71610;SDS011;59459;51.172;6.682;2023-07-20T06:11:34;15.18;;;7.00;;
71610;SDS011;59459;51.172;6.682;2023-07-20T06:13:59;17.23;;;6.83;;
71610;SDS011;59459;51.172;6.682;2023-07-20T06:16:25;15.73;;;6.77;;
71610;SDS011;59459;51.172;6.682;2023-07-20T06:18:50;13.90;;;6.77;;
71610;SDS011;59459;51.172;6.682;2023-07-20T06:21:15;14.87;;;6.17;;
71610;SDS011;59459;51.172;6.682;2023-07-20T06:23:40;14.63;;;6.90;;
71610;SDS011;59459;51.172;6.682;2023-07-20T06:26:06;16.00;;;6.43;;
71610;SDS011;59459;51.172;6.682;2023-07-20T06:28:31;11.17;;;5.83;;
71610;SDS011;59459;51.172;6.682;2023-07-20T06:31:00;10.10;;;4.75;;
71610;SDS011;59459;51.172;6.682;2023-07-20T06:33:26;13.02;;;6.15;;
71610;SDS011;59459;51.172;6.682;2023-07-20T06:35:51;11.80;;;5.20;;
71610;SDS011;59459;51.172;6.682;2023-07-20T06:38:17;12.55;;;5.50;;
71610;SDS011;59459;51.172;6.682;2023-07-20T06:40:43;11.10;;;5.17;;
71610;SDS011;59459;51.172;6.682;2023-07-20T06:43:08;9.83;;;5.03;;
71610;SDS011;59459;51.172;6.682;2023-07-20T06:45:33;8.33;;;4.27;;
71610;SDS011;59459;51.172;6.682;2023-07-20T06:47:58;8.17;;;4.00;;
71610;SDS011;59459;51.172;6.682;2023-07-20T06:50:23;7.83;;;3.43;;
71610;SDS011;59459;51.172;6.682;2023-07-20T06:52:49;7.50;;;3.80;;
71610;SDS011;59459;51.172;6.682;2023-07-20T06:55:14;8.10;;;3.70;;
71610;SDS011;59459;51.172;6.682;2023-07-20T06:57:39;9.73;;;4.33;;
71610;SDS011;59459;51.172;6.682;2023-07-20T07:00:05;8.90;;;3.70;;
71610;SDS011;59459;51.172;6.682;2023-07-20T07:02:31;7.50;;;3.50;;
71610;SDS011;59459;51.172;6.682;2023-07-20T07:04:57;6.47;;;2.80;;
71610;SDS011;59459;51.172;6.682;2023-07-20T07:07:22;5.07;;;2.57;;
71610;SDS011;59459;51.172;6.682;2023-07-20T07:09:47;5.57;;;2.80;;
71610;SDS011;59459;51.172;6.682;2023-07-20T07:12:13;7.10;;;3.20;;
71610;SDS011;59459;51.172;6.682;2023-07-20T07:14:39;6.63;;;2.57;;
71610;SDS011;59459;51.172;6.682;2023-07-20T07:17:04;6.33;;;3.13;;
71610;SDS011;59459;51.172;6.682;2023-07-20T07:19:29;5.63;;;2.92;;
71610;SDS011;59459;51.172;6.682;2023-07-20T07:21:54;6.20;;;2.47;;
71610;SDS011;59459;51.172;6.682;2023-07-20T07:24:20;4.47;;;1.43;;
71610;SDS011;59459;51.172;6.682;2023-07-20T07:26:45;4.40;;;1.83;;
71610;SDS011;59459;51.172;6.682;2023-07-20T07:29:10;3.70;;;1.70;;
71610;SDS011;59459;51.172;6.682;2023-07-20T07:31:35;5.53;;;1.97;;
71610;SDS011;59459;51.172;6.682;2023-07-20T07:34:01;5.83;;;2.30;;
71610;SDS011;59459;51.172;6.682;2023-07-20T07:36:27;4.45;;;2.28;;
71610;SDS011;59459;51.172;6.682;2023-07-20T07:38:52;5.43;;;2.80;;
71610;SDS011;59459;51.172;6.682;2023-07-20T07:41:17;7.83;;;2.67;;
71610;SDS011;59459;51.172;6.682;2023-07-20T07:43:43;6.00;;;2.50;;
71610;SDS011;59459;51.172;6.682;2023-07-20T07:46:08;5.37;;;2.40;;
71610;SDS011;59459;51.172;6.682;2023-07-20T07:48:33;4.97;;;2.40;;
71610;SDS011;59459;51.172;6.682;2023-07-20T07:50:58;7.20;;;2.87;;
71610;SDS011;59459;51.172;6.682;2023-07-20T07:53:24;6.07;;;1.83;;
71610;SDS011;59459;51.172;6.682;2023-07-20T07:55:51;4.05;;;1.85;;
71610;SDS011;59459;51.172;6.682;2023-07-20T07:58:16;4.05;;;1.92;;
71610;SDS011;59459;51.172;6.682;2023-07-20T08:00:41;6.03;;;2.40;;
71610;SDS011;59459;51.172;6.682;2023-07-20T08:03:08;4.27;;;2.00;;
71610;SDS011;59459;51.172;6.682;2023-07-20T08:05:33;4.65;;;2.35;;
71610;SDS011;59459;51.172;6.682;2023-07-20T08:08:00;5.10;;;2.30;;
71610;SDS011;59459;51.172;6.682;2023-07-20T08:10:25;4.90;;;2.10;;
71610;SDS011;59459;51.172;6.682;2023-07-20T08:12:51;5.25;;;2.35;;
71610;SDS011;59459;51.172;6.682;2023-07-20T08:15:16;4.80;;;1.90;;
71610;SDS011;59459;51.172;6.682;2023-07-20T08:17:42;4.03;;;2.00;;
71610;SDS011;59459;51.172;6.682;2023-07-20T08:20:09;4.45;;;2.25;;
71610;SDS011;59459;51.172;6.682;2023-07-20T08:22:41;3.20;;;1.57;;
71610;SDS011;59459;51.172;6.682;2023-07-20T08:25:06;3.70;;;1.60;;
71610;SDS011;59459;51.172;6.682;2023-07-20T08:27:32;2.77;;;1.50;;
71610;SDS011;59459;51.172;6.682;2023-07-20T08:29:57;2.90;;;1.70;;
71610;SDS011;59459;51.172;6.682;2023-07-20T08:32:22;3.73;;;1.50;;
71610;SDS011;59459;51.172;6.682;2023-07-20T08:34:47;5.67;;;2.37;;
71610;SDS011;59459;51.172;6.682;2023-07-20T08:37:12;3.27;;;1.40;;
71610;SDS011;59459;51.172;6.682;2023-07-20T08:39:38;4.77;;;2.10;;
71610;SDS011;59459;51.172;6.682;2023-07-20T08:42:03;3.97;;;1.50;;
71610;SDS011;59459;51.172;6.682;2023-07-20T08:44:32;3.88;;;1.45;;
71610;SDS011;59459;51.172;6.682;2023-07-20T08:46:57;2.88;;;1.30;;
71610;SDS011;59459;51.172;6.682;2023-07-20T08:49:23;4.18;;;1.30;;
71610;SDS011;59459;51.172;6.682;2023-07-20T08:51:49;2.80;;;1.37;;
71610;SDS011;59459;51.172;6.682;2023-07-20T08:54:14;1.83;;;1.17;;
71610;SDS011;59459;51.172;6.682;2023-07-20T08:56:41;2.78;;;1.17;;
71610;SDS011;59459;51.172;6.682;2023-07-20T08:59:07;5.37;;;2.03;;
71610;SDS011;59459;51.172;6.682;2023-07-20T09:01:33;2.42;;;1.27;;
71610;SDS011;59459;51.172;6.682;2023-07-20T09:03:59;2.35;;;1.00;;
71610;SDS011;59459;51.172;6.682;2023-07-20T09:06:25;1.83;;;0.93;;
71610;SDS011;59459;51.172;6.682;2023-07-20T09:08:50;2.47;;;0.90;;
71610;SDS011;59459;51.172;6.682;2023-07-20T09:11:16;1.83;;;0.70;;
71610;SDS011;59459;51.172;6.682;2023-07-20T09:13:42;1.67;;;1.00;;
71610;SDS011;59459;51.172;6.682;2023-07-20T09:16:07;1.50;;;0.90;;
71610;SDS011;59459;51.172;6.682;2023-07-20T09:18:32;1.63;;;1.00;;
71610;SDS011;59459;51.172;6.682;2023-07-20T09:21:02;4.25;;;1.20;;
71610;SDS011;59459;51.172;6.682;2023-07-20T09:23:31;1.90;;;0.82;;
71610;SDS011;59459;51.172;6.682;2023-07-20T09:25:57;2.45;;;1.50;;
71610;SDS011;59459;51.172;6.682;2023-07-20T09:28:22;1.60;;;0.90;;
71610;SDS011;59459;51.172;6.682;2023-07-20T09:30:47;2.30;;;0.83;;
71610;SDS011;59459;51.172;6.682;2023-07-20T09:33:21;2.75;;;0.90;;
71610;SDS011;59459;51.172;6.682;2023-07-20T09:35:46;1.57;;;0.90;;
71610;SDS011;59459;51.172;6.682;2023-07-20T09:38:11;1.10;;;0.70;;
71610;SDS011;59459;51.172;6.682;2023-07-20T09:40:39;1.00;;;0.70;;
71610;SDS011;59459;51.172;6.682;2023-07-20T09:43:07;1.13;;;0.80;;
71610;SDS011;59459;51.172;6.682;2023-07-20T09:45:33;2.15;;;0.80;;
71610;SDS011;59459;51.172;6.682;2023-07-20T09:48:04;3.23;;;1.17;;
71610;SDS011;59459;51.172;6.682;2023-07-20T09:50:31;0.80;;;0.60;;
71610;SDS011;59459;51.172;6.682;2023-07-20T09:52:56;1.40;;;1.00;;
71610;SDS011;59459;51.172;6.682;2023-07-20T09:55:21;2.00;;;1.30;;
71610;SDS011;59459;51.172;6.682;2023-07-20T09:57:49;1.90;;;0.98;;
71610;SDS011;59459;51.172;6.682;2023-07-20T10:00:14;3.33;;;1.10;;
71610;SDS011;59459;51.172;6.682;2023-07-20T10:02:41;1.33;;;0.80;;
71610;SDS011;59459;51.172;6.682;2023-07-20T10:05:08;3.17;;;1.00;;
71610;SDS011;59459;51.172;6.682;2023-07-20T10:07:35;1.30;;;0.80;;
71610;SDS011;59459;51.172;6.682;2023-07-20T10:10:01;2.15;;;0.90;;
71610;SDS011;59459;51.172;6.682;2023-07-20T10:12:28;2.17;;;0.73;;
71610;SDS011;59459;51.172;6.682;2023-07-20T10:15:04;1.67;;;1.10;;
71610;SDS011;59459;51.172;6.682;2023-07-20T10:17:33;1.43;;;0.90;;
71610;SDS011;59459;51.172;6.682;2023-07-20T10:19:58;1.23;;;0.68;;
71610;SDS011;59459;51.172;6.682;2023-07-20T10:22:26;2.00;;;0.80;;
71610;SDS011;59459;51.172;6.682;2023-07-20T10:24:52;1.42;;;0.85;;
71610;SDS011;59459;51.172;6.682;2023-07-20T10:27:19;2.38;;;0.95;;
71610;SDS011;59459;51.172;6.682;2023-07-20T10:29:45;1.15;;;0.80;;
71610;SDS011;59459;51.172;6.682;2023-07-20T10:32:11;1.40;;;0.70;;
71610;SDS011;59459;51.172;6.682;2023-07-20T10:34:36;1.63;;;0.68;;
71610;SDS011;59459;51.172;6.682;2023-07-20T10:37:01;1.77;;;0.80;;
71610;SDS011;59459;51.172;6.682;2023-07-20T10:39:28;1.30;;;0.93;;
71610;SDS011;59459;51.172;6.682;2023-07-20T10:42:09;2.45;;;0.80;;
71610;SDS011;59459;51.172;6.682;2023-07-20T10:44:36;2.10;;;0.90;;
71610;SDS011;59459;51.172;6.682;2023-07-20T10:47:02;1.87;;;1.13;;
71610;SDS011;59459;51.172;6.682;2023-07-20T10:49:28;1.60;;;0.90;;
71610;SDS011;59459;51.172;6.682;2023-07-20T10:51:57;1.73;;;0.85;;
71610;SDS011;59459;51.172;6.682;2023-07-20T10:56:51;2.47;;;0.80;;
71610;SDS011;59459;51.172;6.682;2023-07-20T11:01:54;2.87;;;1.07;;
71610;SDS011;59459;51.172;6.682;2023-07-20T11:04:21;1.35;;;0.80;;
71610;SDS011;59459;51.172;6.682;2023-07-20T11:07:02;1.73;;;1.10;;
71610;SDS011;59459;51.172;6.682;2023-07-20T11:09:32;2.57;;;1.07;;
71610;SDS011;59459;51.172;6.682;2023-07-20T11:14:39;1.40;;;1.05;;
71610;SDS011;59459;51.172;6.682;2023-07-20T11:17:14;2.30;;;0.80;;
71610;SDS011;59459;51.172;6.682;2023-07-20T11:19:40;1.53;;;0.70;;
71610;SDS011;59459;51.172;6.682;2023-07-20T11:22:05;2.03;;;0.90;;
71610;SDS011;59459;51.172;6.682;2023-07-20T11:24:33;1.83;;;1.08;;
71610;SDS011;59459;51.172;6.682;2023-07-20T11:26:58;1.77;;;0.90;;
71610;SDS011;59459;51.172;6.682;2023-07-20T11:29:26;2.20;;;1.10;;
71610;SDS011;59459;51.172;6.682;2023-07-20T11:31:51;1.63;;;0.90;;
71610;SDS011;59459;51.172;6.682;2023-07-20T11:34:17;1.67;;;1.17;;
71610;SDS011;59459;51.172;6.682;2023-07-20T11:36:46;2.15;;;0.95;;
71610;SDS011;59459;51.172;6.682;2023-07-20T11:39:15;1.48;;;0.90;;
71610;SDS011;59459;51.172;6.682;2023-07-20T11:41:44;2.80;;;1.60;;
71610;SDS011;59459;51.172;6.682;2023-07-20T11:44:11;1.65;;;1.00;;
71610;SDS011;59459;51.172;6.682;2023-07-20T11:46:40;1.80;;;0.90;;
71610;SDS011;59459;51.172;6.682;2023-07-20T11:49:06;2.97;;;1.00;;
71610;SDS011;59459;51.172;6.682;2023-07-20T11:51:31;1.90;;;1.10;;
71610;SDS011;59459;51.172;6.682;2023-07-20T11:53:57;1.20;;;0.80;;
71610;SDS011;59459;51.172;6.682;2023-07-20T11:56:24;1.23;;;0.87;;
71610;SDS011;59459;51.172;6.682;2023-07-20T11:58:49;2.35;;;1.00;;
71610;SDS011;59459;51.172;6.682;2023-07-20T12:01:14;1.60;;;1.00;;
71610;SDS011;59459;51.172;6.682;2023-07-20T12:03:41;1.65;;;1.10;;
71610;SDS011;59459;51.172;6.682;2023-07-20T12:06:07;3.05;;;1.00;;
71610;SDS011;59459;51.172;6.682;2023-07-20T12:08:33;1.40;;;1.00;;
71610;SDS011;59459;51.172;6.682;2023-07-20T12:10:58;1.57;;;1.23;;
71610;SDS011;59459;51.172;6.682;2023-07-20T12:13:23;3.10;;;1.10;;
71610;SDS011;59459;51.172;6.682;2023-07-20T12:15:52;2.00;;;1.10;;
71610;SDS011;59459;51.172;6.682;2023-07-20T12:18:18;2.30;;;1.33;;
71610;SDS011;59459;51.172;6.682;2023-07-20T12:20:43;2.20;;;1.03;;
71610;SDS011;59459;51.172;6.682;2023-07-20T12:23:09;1.63;;;0.73;;
71610;SDS011;59459;51.172;6.682;2023-07-20T12:25:39;2.00;;;1.10;;
71610;SDS011;59459;51.172;6.682;2023-07-20T12:28:05;3.05;;;1.25;;
71610;SDS011;59459;51.172;6.682;2023-07-20T12:30:30;1.70;;;0.93;;
71610;SDS011;59459;51.172;6.682;2023-07-20T12:32:56;2.27;;;1.00;;
71610;SDS011;59459;51.172;6.682;2023-07-20T12:35:21;1.93;;;0.73;;
71610;SDS011;59459;51.172;6.682;2023-07-20T12:37:46;1.97;;;1.00;;
71610;SDS011;59459;51.172;6.682;2023-07-20T12:40:14;1.73;;;1.02;;
71610;SDS011;59459;51.172;6.682;2023-07-20T12:42:39;3.70;;;1.07;;
71610;SDS011;59459;51.172;6.682;2023-07-20T12:45:05;1.47;;;1.03;;
71610;SDS011;59459;51.172;6.682;2023-07-20T12:47:31;1.67;;;1.10;;
71610;SDS011;59459;51.172;6.682;2023-07-20T12:49:56;2.97;;;1.07;;
71610;SDS011;59459;51.172;6.682;2023-07-20T12:52:21;2.10;;;1.20;;
71610;SDS011;59459;51.172;6.682;2023-07-20T12:54:46;1.60;;;0.93;;
71610;SDS011;59459;51.172;6.682;2023-07-20T12:57:11;2.70;;;0.90;;
71610;SDS011;59459;51.172;6.682;2023-07-20T12:59:37;3.63;;;1.13;;
71610;SDS011;59459;51.172;6.682;2023-07-20T13:02:02;2.13;;;1.20;;
71610;SDS011;59459;51.172;6.682;2023-07-20T13:04:28;2.87;;;1.10;;
71610;SDS011;59459;51.172;6.682;2023-07-20T13:06:53;2.37;;;1.20;;
71610;SDS011;59459;51.172;6.682;2023-07-20T13:09:19;1.95;;;0.93;;
71610;SDS011;59459;51.172;6.682;2023-07-20T13:11:44;3.87;;;1.47;;
71610;SDS011;59459;51.172;6.682;2023-07-20T13:14:11;2.55;;;1.27;;
71610;SDS011;59459;51.172;6.682;2023-07-20T13:16:36;2.33;;;0.95;;
71610;SDS011;59459;51.172;6.682;2023-07-20T13:19:02;1.90;;;0.87;;
71610;SDS011;59459;51.172;6.682;2023-07-20T13:21:27;2.53;;;0.90;;
71610;SDS011;59459;51.172;6.682;2023-07-20T13:23:52;2.10;;;0.97;;
71610;SDS011;59459;51.172;6.682;2023-07-20T13:26:17;1.80;;;1.03;;
71610;SDS011;59459;51.172;6.682;2023-07-20T13:28:43;1.90;;;1.00;;
71610;SDS011;59459;51.172;6.682;2023-07-20T13:31:08;1.90;;;0.97;;
71610;SDS011;59459;51.172;6.682;2023-07-20T13:33:35;2.22;;;0.90;;
71610;SDS011;59459;51.172;6.682;2023-07-20T13:36:00;3.37;;;1.10;;
71610;SDS011;59459;51.172;6.682;2023-07-20T13:38:26;1.97;;;0.87;;
71610;SDS011;59459;51.172;6.682;2023-07-20T13:40:51;1.77;;;0.80;;
71610;SDS011;59459;51.172;6.682;2023-07-20T13:43:17;2.03;;;0.80;;
71610;SDS011;59459;51.172;6.682;2023-07-20T13:45:42;2.07;;;0.80;;
71610;SDS011;59459;51.172;6.682;2023-07-20T13:48:07;1.60;;;0.80;;
71610;SDS011;59459;51.172;6.682;2023-07-20T13:50:33;1.90;;;0.90;;
71610;SDS011;59459;51.172;6.682;2023-07-20T13:52:58;1.60;;;0.80;;
71610;SDS011;59459;51.172;6.682;2023-07-20T13:55:23;1.67;;;1.00;;
71610;SDS011;59459;51.172;6.682;2023-07-20T13:57:48;3.07;;;1.17;;
71610;SDS011;59459;51.172;6.682;2023-07-20T14:00:14;2.33;;;1.10;;
71610;SDS011;59459;51.172;6.682;2023-07-20T14:02:39;3.13;;;1.13;;
71610;SDS011;59459;51.172;6.682;2023-07-20T14:05:04;2.90;;;1.20;;
71610;SDS011;59459;51.172;6.682;2023-07-20T14:07:30;2.73;;;0.90;;
71610;SDS011;59459;51.172;6.682;2023-07-20T14:09:55;2.37;;;1.00;;
71610;SDS011;59459;51.172;6.682;2023-07-20T14:12:20;2.63;;;0.97;;
71610;SDS011;59459;51.172;6.682;2023-07-20T14:14:45;1.97;;;0.93;;
71610;SDS011;59459;51.172;6.682;2023-07-20T14:17:10;1.80;;;0.80;;
71610;SDS011;59459;51.172;6.682;2023-07-20T14:19:37;1.67;;;1.20;;
71610;SDS011;59459;51.172;6.682;2023-07-20T14:22:02;1.95;;;1.00;;
71610;SDS011;59459;51.172;6.682;2023-07-20T14:24:28;2.35;;;1.23;;
71610;SDS011;59459;51.172;6.682;2023-07-20T14:26:54;2.07;;;0.90;;
71610;SDS011;59459;51.172;6.682;2023-07-20T14:29:19;2.20;;;1.00;;
71610;SDS011;59459;51.172;6.682;2023-07-20T14:31:45;4.07;;;1.10;;
71610;SDS011;59459;51.172;6.682;2023-07-20T14:34:10;2.20;;;1.20;;
71610;SDS011;59459;51.172;6.682;2023-07-20T14:36:35;2.17;;;1.17;;
71610;SDS011;59459;51.172;6.682;2023-07-20T14:39:00;1.87;;;1.07;;
71610;SDS011;59459;51.172;6.682;2023-07-20T14:41:26;3.10;;;1.00;;
71610;SDS011;59459;51.172;6.682;2023-07-20T14:43:51;1.87;;;1.00;;
71610;SDS011;59459;51.172;6.682;2023-07-20T14:46:16;1.73;;;0.70;;
71610;SDS011;59459;51.172;6.682;2023-07-20T14:48:41;2.20;;;1.00;;
71610;SDS011;59459;51.172;6.682;2023-07-20T14:51:07;1.80;;;1.13;;